Time;durP1;ratioP1;P1;durP2;ratioP2;P2;SDS_P1;SDS_P2;PMS_P1;PMS_P2;Temp;Humidity;BMP_temperature;BMP_pressure;BME280_temperature;BME280_humidity;BME280_pressure;Samples;Min_cycle;Max_cycle;Signal;HPM_P1;HPM_P2
2023/08/01 03:59:49;;;;;;;6.45;5.75;;;24.10;99.80;;;;;;6209703;28;84170;-69
2023/08/01 04:02:51;;;;;;;6.20;5.60;;;24.10;99.90;;;;;;6231486;28;82919;-69
2023/08/01 04:05:53;;;;;;;5.72;5.18;;;24.10;99.90;;;;;;6234698;28;84001;-69
2023/08/01 04:08:56;;;;;;;14.75;7.47;;;24.10;99.80;;;;;;6225304;28;83655;-69
2023/08/01 04:11:58;;;;;;;5.75;5.15;;;24.10;99.80;;;;;;6232142;28;82921;-69
2023/08/01 04:15:02;;;;;;;6.05;5.40;;;24.10;99.80;;;;;;6224063;28;83973;-69
2023/08/01 04:18:04;;;;;;;5.47;4.93;;;24.10;99.70;;;;;;6234233;28;82749;-69
2023/08/01 04:21:06;;;;;;;6.13;5.53;;;24.10;99.80;;;;;;6226183;28;82471;-70
2023/08/01 04:24:08;;;;;;;7.65;5.72;;;24.10;99.80;;;;;;6224373;28;83993;-69
2023/08/01 04:27:10;;;;;;;6.22;5.63;;;24.10;99.80;;;;;;6222548;28;84105;-69
2023/08/01 04:30:13;;;;;;;5.80;5.20;;;24.10;99.80;;;;;;6223360;28;85320;-69
2023/08/01 04:33:15;;;;;;;6.40;5.65;;;24.10;99.80;;;;;;6228159;28;83204;-69
2023/08/01 04:36:17;;;;;;;7.70;6.00;;;24.10;99.80;;;;;;6225225;27;84087;-70
2023/08/01 04:39:19;;;;;;;6.15;5.45;;;24.10;99.70;;;;;;6223044;28;82910;-70
2023/08/01 04:42:21;;;;;;;6.22;5.63;;;24.10;99.60;;;;;;6234508;28;82955;-69
2023/08/01 04:45:24;;;;;;;6.30;5.70;;;24.10;99.60;;;;;;6225166;28;84054;-70
2023/08/01 04:48:26;;;;;;;5.72;5.22;;;24.10;99.60;;;;;;6224867;28;83195;-70
2023/08/01 04:51:28;;;;;;;5.90;5.30;;;24.10;99.60;;;;;;6235150;28;83575;-69
2023/08/01 04:54:30;;;;;;;5.60;5.10;;;24.10;99.60;;;;;;6237268;28;83211;-70
2023/08/01 04:57:32;;;;;;;5.00;4.60;;;24.10;99.60;;;;;;6227926;28;84241;-69
2023/08/01 05:00:36;;;;;;;6.28;5.30;;;24.10;99.60;;;;;;6225085;28;84226;-69
2023/08/01 05:03:37;;;;;;;8.13;6.00;;;24.10;99.60;;;;;;6223308;28;83968;-69
2023/08/01 05:06:40;;;;;;;7.25;5.75;;;24.10;99.90;;;;;;6232848;28;84016;-68
2023/08/01 05:09:42;;;;;;;6.85;5.38;;;24.10;99.90;;;;;;6232543;28;83889;-68
2023/08/01 05:12:44;;;;;;;7.30;5.95;;;24.10;99.90;;;;;;6231671;28;83993;-68
2023/08/01 05:15:48;;;;;;;8.48;6.07;;;24.10;99.90;;;;;;6231326;28;83918;-68
2023/08/01 05:18:50;;;;;;;6.07;5.47;;;24.10;99.90;;;;;;6223085;28;84026;-69
2023/08/01 05:21:52;;;;;;;7.03;5.43;;;24.10;99.90;;;;;;6216687;28;83810;-68
2023/08/01 05:24:54;;;;;;;7.03;5.07;;;24.10;99.90;;;;;;6219045;28;83958;-69
2023/08/01 05:27:56;;;;;;;6.72;5.40;;;24.20;99.90;;;;;;6217061;28;84129;-70
2023/08/01 05:30:59;;;;;;;6.75;5.35;;;24.20;99.90;;;;;;6227910;28;85301;-69
2023/08/01 05:34:01;;;;;;;7.68;5.75;;;24.20;99.90;;;;;;6225204;28;84116;-69
2023/08/01 05:37:03;;;;;;;8.50;5.63;;;24.20;99.90;;;;;;6214006;28;84013;-69
2023/08/01 05:40:06;;;;;;;11.18;5.82;;;24.20;99.90;;;;;;6232858;28;84082;-69
2023/08/01 05:43:09;;;;;;;11.52;5.80;;;24.20;99.90;;;;;;6202154;27;84869;-69
2023/08/01 05:46:12;;;;;;;8.05;5.43;;;24.20;99.90;;;;;;6232656;28;84035;-69
2023/08/01 05:49:14;;;;;;;8.52;5.25;;;24.20;99.90;;;;;;6232080;28;85619;-69
2023/08/01 05:52:16;;;;;;;8.73;5.25;;;24.20;99.90;;;;;;6235642;28;83231;-69
2023/08/01 05:55:18;;;;;;;8.60;5.47;;;24.20;99.90;;;;;;6234478;28;84088;-69
2023/08/01 05:58:20;;;;;;;8.00;5.50;;;24.10;99.90;;;;;;6237907;27;83905;-70
2023/08/01 06:01:24;;;;;;;6.47;5.20;;;24.10;99.90;;;;;;6232611;28;83981;-69
2023/08/01 06:04:27;;;;;;;6.63;4.90;;;24.20;99.90;;;;;;6223246;28;84113;-69
2023/08/01 06:07:29;;;;;;;7.43;4.68;;;24.20;99.90;;;;;;6220503;28;83923;-69
2023/08/01 06:10:31;;;;;;;6.90;4.82;;;24.10;99.90;;;;;;6218081;28;83904;-69
2023/08/01 06:13:33;;;;;;;5.88;4.68;;;24.10;99.90;;;;;;6235047;28;84087;-69
2023/08/01 06:16:36;;;;;;;7.03;5.10;;;24.10;99.90;;;;;;6231231;28;84028;-69
2023/08/01 06:19:38;;;;;;;5.10;4.57;;;24.10;99.90;;;;;;6238750;27;84514;-69
2023/08/01 06:22:40;;;;;;;6.40;5.03;;;24.10;99.90;;;;;;6218419;28;83367;-70
2023/08/01 06:25:42;;;;;;;6.93;5.05;;;24.10;99.90;;;;;;6222323;28;84110;-69
2023/08/01 06:28:44;;;;;;;8.38;4.93;;;24.10;99.90;;;;;;6245517;27;83921;-70
2023/08/01 06:31:47;;;;;;;6.22;4.47;;;24.10;99.90;;;;;;6247090;27;85120;-69
2023/08/01 06:34:49;;;;;;;4.70;3.83;;;24.10;99.90;;;;;;6258048;27;83981;-70
2023/08/01 06:37:51;;;;;;;4.68;3.92;;;24.10;99.90;;;;;;6247174;28;84007;-69
2023/08/01 06:40:53;;;;;;;4.40;3.72;;;24.10;99.90;;;;;;6247217;28;84376;-69
2023/08/01 06:43:55;;;;;;;5.03;3.60;;;24.10;99.90;;;;;;6244564;28;84053;-69
2023/08/01 06:46:58;;;;;;;4.90;3.72;;;24.10;99.90;;;;;;6228545;28;84183;-69
2023/08/01 06:50:01;;;;;;;6.35;4.15;;;24.10;99.90;;;;;;6237005;27;83913;-69
2023/08/01 06:53:03;;;;;;;6.88;4.35;;;24.10;99.90;;;;;;6240366;28;83333;-69
2023/08/01 06:56:05;;;;;;;6.47;4.32;;;24.10;99.90;;;;;;6235539;28;83995;-69
2023/08/01 06:59:07;;;;;;;5.18;3.78;;;24.10;99.90;;;;;;6231366;28;84467;-69
2023/08/01 07:02:10;;;;;;;5.57;3.95;;;24.10;99.90;;;;;;6227947;28;85234;-69
2023/08/01 07:05:12;;;;;;;5.53;3.75;;;24.10;99.90;;;;;;6235440;28;84213;-69
2023/08/01 07:08:14;;;;;;;4.50;3.70;;;24.10;99.90;;;;;;6235479;28;83063;-69
2023/08/01 07:11:16;;;;;;;4.30;3.58;;;24.10;99.90;;;;;;6231028;28;84010;-69
2023/08/01 07:14:18;;;;;;;6.45;3.90;;;24.10;99.90;;;;;;6219158;28;84346;-69
2023/08/01 07:17:22;;;;;;;5.63;4.10;;;24.10;99.90;;;;;;6235348;28;84050;-69
2023/08/01 07:20:24;;;;;;;8.25;4.63;;;24.10;99.90;;;;;;6228043;28;84030;-69
2023/08/01 07:23:26;;;;;;;4.57;3.65;;;24.10;99.90;;;;;;6225128;28;83341;-69
2023/08/01 07:26:28;;;;;;;4.85;3.70;;;24.10;99.90;;;;;;6244944;28;84027;-69
2023/08/01 07:29:30;;;;;;;4.15;3.55;;;24.10;99.90;;;;;;6240084;27;84381;-69
2023/08/01 07:32:33;;;;;;;4.95;3.88;;;24.10;99.90;;;;;;6242732;27;85382;-69
2023/08/01 07:35:35;;;;;;;4.07;3.47;;;24.00;99.90;;;;;;6228369;28;83239;-69
2023/08/01 07:38:37;;;;;;;3.70;3.38;;;24.10;99.90;;;;;;6247154;28;84256;-69
2023/08/01 07:41:39;;;;;;;5.07;3.90;;;24.10;99.90;;;;;;6255851;28;83987;-69
2023/08/01 07:44:41;;;;;;;4.80;3.63;;;24.10;99.90;;;;;;6255081;27;84093;-69
2023/08/01 07:47:45;;;;;;;5.57;3.88;;;24.10;99.90;;;;;;6245954;27;84009;-69
2023/08/01 07:50:46;;;;;;;4.45;3.53;;;24.10;99.90;;;;;;6230403;27;84194;-69
2023/08/01 07:53:48;;;;;;;3.83;3.30;;;24.10;99.90;;;;;;6241856;27;82204;-69
2023/08/01 07:56:50;;;;;;;6.68;4.30;;;24.10;99.90;;;;;;6247241;27;84346;-70
2023/08/01 07:59:52;;;;;;;5.30;3.60;;;24.00;99.90;;;;;;6234040;28;83956;-69
2023/08/01 08:02:56;;;;;;;4.82;3.58;;;24.10;99.90;;;;;;6219835;28;83839;-69
2023/08/01 08:05:58;;;;;;;4.28;3.47;;;24.10;99.90;;;;;;6234774;28;84009;-70
2023/08/01 08:09:00;;;;;;;4.53;3.70;;;24.00;99.90;;;;;;6233125;28;82912;-70
2023/08/01 08:12:02;;;;;;;5.03;3.75;;;24.10;99.90;;;;;;6225810;28;82850;-70
2023/08/01 08:15:04;;;;;;;5.00;3.95;;;24.00;99.90;;;;;;6237815;28;84083;-70
2023/08/01 08:18:08;;;;;;;4.40;3.50;;;24.10;99.90;;;;;;6239651;27;82855;-69
2023/08/01 08:21:10;;;;;;;4.38;3.75;;;24.00;99.90;;;;;;6230116;28;84035;-70
2023/08/01 08:24:12;;;;;;;5.00;3.58;;;24.00;99.90;;;;;;6231726;28;82211;-69
2023/08/01 08:27:14;;;;;;;4.50;3.83;;;24.10;99.90;;;;;;6236797;28;83995;-70
2023/08/01 08:30:16;;;;;;;6.80;4.32;;;24.00;99.90;;;;;;6243744;27;84037;-69
2023/08/01 08:33:21;;;;;;;5.03;3.92;;;24.00;99.90;;;;;;6233056;28;85186;-69
2023/08/01 08:36:23;;;;;;;5.60;4.28;;;24.00;99.90;;;;;;6232368;28;84078;-69
2023/08/01 08:39:25;;;;;;;4.57;3.60;;;24.00;99.90;;;;;;6233701;28;83947;-69
2023/08/01 08:42:27;;;;;;;5.20;3.80;;;24.00;99.90;;;;;;6233773;28;84256;-70
2023/08/01 08:45:33;;;;;;;4.70;3.78;;;24.00;99.90;;;;;;6234181;28;83842;-70
2023/08/01 08:48:38;;;;;;;4.28;3.25;;;24.00;99.90;;;;;;6232911;28;84156;-69
2023/08/01 08:51:41;;;;;;;4.32;3.65;;;24.00;99.90;;;;;;6230386;28;82971;-70
2023/08/01 08:54:43;;;;;;;4.85;3.28;;;24.00;99.90;;;;;;6219532;28;82204;-70
2023/08/01 08:57:50;;;;;;;5.28;3.65;;;24.00;99.90;;;;;;6232217;28;84109;-70
2023/08/01 09:00:52;;;;;;;5.03;3.83;;;24.00;99.90;;;;;;6227417;28;82626;-69
2023/08/01 09:03:57;;;;;;;4.30;3.80;;;24.00;99.90;;;;;;6234217;28;85181;-70
2023/08/01 09:07:04;;;;;;;5.88;4.00;;;24.00;99.90;;;;;;6246238;28;84003;-70
2023/08/01 09:10:08;;;;;;;5.22;3.88;;;24.00;99.90;;;;;;6230890;28;84368;-70
2023/08/01 09:13:10;;;;;;;5.63;4.05;;;24.00;99.90;;;;;;6216816;28;83992;-70
2023/08/01 09:16:13;;;;;;;5.57;4.00;;;24.00;99.90;;;;;;6238837;27;84012;-70
2023/08/01 09:19:20;;;;;;;4.25;3.60;;;24.00;99.90;;;;;;6222195;28;83941;-69
2023/08/01 09:22:22;;;;;;;9.02;5.15;;;24.00;99.90;;;;;;6230946;28;84135;-70
2023/08/01 09:25:33;;;;;;;6.63;4.20;;;24.00;99.90;;;;;;6234254;28;83246;-70
2023/08/01 09:28:35;;;;;;;5.72;3.92;;;24.00;99.90;;;;;;6242266;27;82915;-70
2023/08/01 09:31:38;;;;;;;4.15;3.63;;;24.00;99.90;;;;;;6242917;27;84028;-69
2023/08/01 09:34:43;;;;;;;4.53;3.50;;;23.90;99.90;;;;;;6244598;28;86668;-70
2023/08/01 09:37:45;;;;;;;4.72;3.25;;;24.00;99.90;;;;;;6232186;28;84101;-69
2023/08/01 09:40:47;;;;;;;4.97;3.40;;;24.00;99.90;;;;;;6246530;27;84260;-70
2023/08/01 09:43:51;;;;;;;5.78;3.58;;;24.00;99.90;;;;;;6247158;27;84041;-69
2023/08/01 09:46:57;;;;;;;4.97;3.70;;;24.00;99.90;;;;;;6222717;28;84162;-70
2023/08/01 09:50:01;;;;;;;6.20;3.80;;;24.00;99.90;;;;;;6248800;27;84590;-69
2023/08/01 09:53:10;;;;;;;5.53;3.90;;;24.00;99.90;;;;;;6249289;28;84155;-70
2023/08/01 09:56:15;;;;;;;7.25;4.32;;;24.00;99.90;;;;;;6250401;27;83276;-69
2023/08/01 09:59:20;;;;;;;7.60;4.20;;;24.00;99.90;;;;;;6209109;28;84130;-69
2023/08/01 10:02:25;;;;;;;4.50;3.50;;;24.00;99.90;;;;;;6231709;28;83038;-70
2023/08/01 10:05:31;;;;;;;4.30;3.30;;;24.00;99.90;;;;;;6225603;28;84913;-69
2023/08/01 10:08:33;;;;;;;3.83;3.40;;;24.00;99.90;;;;;;6230677;28;83957;-69
2023/08/01 10:11:35;;;;;;;4.53;3.55;;;24.00;99.90;;;;;;6227294;28;84314;-69
2023/08/01 10:14:39;;;;;;;5.28;3.72;;;23.90;99.90;;;;;;6230733;28;84037;-69
2023/08/01 10:17:42;;;;;;;4.35;3.28;;;23.90;99.90;;;;;;6230696;28;84244;-69
2023/08/01 10:20:46;;;;;;;5.95;3.63;;;23.90;99.90;;;;;;6217482;27;84001;-70
2023/08/01 10:23:49;;;;;;;6.38;3.75;;;24.00;99.90;;;;;;6231904;28;83946;-69
2023/08/01 10:26:51;;;;;;;5.90;3.33;;;24.10;99.90;;;;;;6245733;28;83299;-70
2023/08/01 10:29:59;;;;;;;4.32;3.50;;;24.00;99.90;;;;;;6238593;28;84016;-69
2023/08/01 10:33:02;;;;;;;5.43;3.63;;;24.00;99.90;;;;;;6231638;28;83969;-69
2023/08/01 10:36:15;;;;;;;4.85;3.40;;;24.00;99.90;;;;;;6231197;28;85036;-69
2023/08/01 10:39:23;;;;;;;5.60;3.58;;;23.90;99.90;;;;;;6242588;27;83948;-69
2023/08/01 10:42:24;;;;;;;5.45;3.67;;;23.90;99.90;;;;;;6230378;28;84416;-69
2023/08/01 10:45:27;;;;;;;4.60;3.50;;;23.90;99.90;;;;;;6231081;28;83022;-69
2023/08/01 10:48:29;;;;;;;5.13;3.65;;;24.00;99.90;;;;;;6218105;28;84301;-69
2023/08/01 10:51:37;;;;;;;4.57;3.40;;;23.90;99.90;;;;;;6230949;28;82866;-69
2023/08/01 10:54:40;;;;;;;6.20;3.78;;;24.00;99.90;;;;;;6231184;28;83068;-69
2023/08/01 10:57:49;;;;;;;6.15;4.00;;;23.90;99.90;;;;;;6232721;28;83444;-69
2023/08/01 11:00:58;;;;;;;5.05;3.75;;;23.90;99.90;;;;;;6223696;28;82836;-69
2023/08/01 11:04:00;;;;;;;4.57;3.60;;;23.90;99.90;;;;;;6226142;28;84025;-69
2023/08/01 11:07:06;;;;;;;4.50;3.67;;;23.90;99.90;;;;;;6224888;28;83887;-69
2023/08/01 11:10:09;;;;;;;5.65;3.65;;;23.90;99.90;;;;;;6217352;28;84006;-70
2023/08/01 11:13:13;;;;;;;7.63;4.57;;;23.90;99.90;;;;;;6229889;28;84127;-70
2023/08/01 11:16:15;;;;;;;6.45;3.65;;;23.90;99.90;;;;;;6221644;27;83995;-69
2023/08/01 11:19:21;;;;;;;5.72;4.18;;;23.90;99.90;;;;;;6234540;28;84346;-69
2023/08/01 11:22:25;;;;;;;5.03;3.85;;;23.90;99.90;;;;;;6227968;28;83989;-70
2023/08/01 11:25:34;;;;;;;9.05;4.75;;;23.90;99.90;;;;;;6226694;28;84542;-69
2023/08/01 11:28:36;;;;;;;9.02;4.88;;;24.00;99.90;;;;;;6222031;28;82151;-69
2023/08/01 11:31:38;;;;;;;5.82;3.70;;;23.90;99.90;;;;;;6245072;28;84041;-69
2023/08/01 11:34:43;;;;;;;4.53;3.40;;;23.90;99.90;;;;;;6221759;28;84145;-69
2023/08/01 11:37:47;;;;;;;5.78;4.00;;;24.00;99.90;;;;;;6246053;28;85075;-69
2023/08/01 11:40:50;;;;;;;5.95;4.00;;;23.90;99.90;;;;;;6252881;28;83143;-69
2023/08/01 11:43:53;;;;;;;5.25;4.20;;;23.90;99.90;;;;;;6237071;27;84179;-70
2023/08/01 11:46:55;;;;;;;5.72;4.13;;;23.90;99.90;;;;;;6232887;28;84056;-69
2023/08/01 11:49:57;;;;;;;6.47;4.40;;;23.90;99.90;;;;;;6231348;28;83265;-70
2023/08/01 11:53:00;;;;;;;7.63;4.35;;;23.90;99.90;;;;;;6224011;28;84006;-69
2023/08/01 11:56:02;;;;;;;6.18;4.10;;;23.90;99.90;;;;;;6248940;27;84363;-69
2023/08/01 11:59:10;;;;;;;5.20;3.88;;;23.90;99.90;;;;;;6245883;27;85273;-69
2023/08/01 12:02:12;;;;;;;5.97;4.32;;;23.90;99.90;;;;;;6234162;28;84074;-69
2023/08/01 12:05:22;;;;;;;4.65;3.80;;;23.90;99.90;;;;;;6226076;28;84306;-70
2023/08/01 12:08:33;;;;;;;6.82;4.63;;;23.90;99.90;;;;;;6233115;28;85045;-69
2023/08/01 12:11:35;;;;;;;7.32;4.30;;;23.90;99.90;;;;;;6232763;28;83942;-70
2023/08/01 12:14:40;;;;;;;5.35;4.15;;;23.90;99.90;;;;;;6247147;28;84112;-69
2023/08/01 12:17:42;;;;;;;4.80;4.00;;;23.90;99.90;;;;;;6237089;28;83949;-69
2023/08/01 12:20:44;;;;;;;5.70;3.83;;;23.90;99.90;;;;;;6215358;28;83957;-69
2023/08/01 12:23:48;;;;;;;6.10;4.68;;;23.90;99.90;;;;;;6230439;28;84005;-69
2023/08/01 12:26:50;;;;;;;5.78;4.25;;;23.90;99.90;;;;;;6232795;28;84267;-69
2023/08/01 12:29:52;;;;;;;5.35;4.40;;;23.90;99.90;;;;;;6221589;28;83314;-69
2023/08/01 12:32:54;;;;;;;5.97;4.53;;;23.90;99.90;;;;;;6232848;28;84371;-69
2023/08/01 12:35:56;;;;;;;6.72;4.68;;;23.90;99.90;;;;;;6232299;28;84106;-69
2023/08/01 12:38:59;;;;;;;4.85;4.28;;;23.90;99.90;;;;;;6234377;28;84903;-69
2023/08/01 12:42:01;;;;;;;5.18;4.40;;;23.90;99.90;;;;;;6234189;28;84350;-69
2023/08/01 12:45:04;;;;;;;5.22;4.30;;;23.90;99.90;;;;;;6230798;28;84303;-69
2023/08/01 12:48:06;;;;;;;5.57;4.57;;;23.90;99.90;;;;;;6233076;28;83858;-69
2023/08/01 12:51:10;;;;;;;7.15;4.68;;;23.90;99.90;;;;;;6234446;28;82934;-70
2023/08/01 12:54:13;;;;;;;5.32;4.15;;;23.90;99.90;;;;;;6221416;28;84072;-69
2023/08/01 12:57:15;;;;;;;4.82;4.03;;;23.90;99.90;;;;;;6233760;28;83923;-69
2023/08/01 13:00:17;;;;;;;6.15;4.68;;;23.90;99.90;;;;;;6231106;28;83314;-69
2023/08/01 13:03:19;;;;;;;5.95;4.38;;;23.90;99.90;;;;;;6231454;28;84020;-69
2023/08/01 13:06:21;;;;;;;5.15;4.03;;;23.90;99.90;;;;;;6235032;28;84805;-69
2023/08/01 13:09:24;;;;;;;5.03;4.10;;;23.90;99.90;;;;;;6232972;28;85334;-69
2023/08/01 13:12:26;;;;;;;4.45;3.95;;;23.90;99.90;;;;;;6226587;28;84045;-69
2023/08/01 13:15:29;;;;;;;5.13;4.13;;;23.90;99.90;;;;;;6232664;28;84484;-69
2023/08/01 13:18:31;;;;;;;4.47;3.60;;;23.90;99.90;;;;;;6230989;28;84099;-69
2023/08/01 13:21:34;;;;;;;4.70;3.45;;;23.90;99.90;;;;;;6220502;28;84255;-69
2023/08/01 13:24:37;;;;;;;4.65;3.90;;;23.90;99.90;;;;;;6237527;28;84321;-69
2023/08/01 13:27:39;;;;;;;4.72;3.63;;;23.90;99.90;;;;;;6235884;28;84459;-69
2023/08/01 13:30:41;;;;;;;5.10;3.35;;;23.90;99.90;;;;;;6221354;28;82557;-69
2023/08/01 13:33:43;;;;;;;4.18;3.35;;;23.90;99.90;;;;;;6232633;28;84405;-69
2023/08/01 13:36:45;;;;;;;5.13;3.67;;;23.90;99.90;;;;;;6225905;28;84051;-69
2023/08/01 13:39:48;;;;;;;6.35;4.40;;;23.90;99.90;;;;;;6231387;28;84913;-69
2023/08/01 13:42:50;;;;;;;4.43;3.63;;;23.90;99.90;;;;;;6226164;28;84358;-69
2023/08/01 13:45:52;;;;;;;4.60;3.65;;;23.90;99.90;;;;;;6232596;28;84081;-69
2023/08/01 13:48:54;;;;;;;6.45;4.20;;;23.90;99.90;;;;;;6211534;28;84265;-69
2023/08/01 13:51:56;;;;;;;5.57;4.10;;;23.90;99.90;;;;;;6228996;28;83999;-69
2023/08/01 13:55:02;;;;;;;5.20;3.92;;;23.90;99.90;;;;;;6233494;28;83962;-69
2023/08/01 13:58:04;;;;;;;5.07;4.07;;;23.90;99.90;;;;;;6220928;28;84031;-69
2023/08/01 14:01:09;;;;;;;5.00;4.00;;;23.90;99.90;;;;;;6229652;28;83252;-68
2023/08/01 14:04:13;;;;;;;9.02;4.45;;;23.90;99.90;;;;;;6217087;28;84025;-69
2023/08/01 14:07:16;;;;;;;5.28;4.30;;;23.90;99.90;;;;;;6232835;28;83709;-69
2023/08/01 14:10:21;;;;;;;5.38;4.00;;;23.90;99.90;;;;;;6220510;28;85008;-69
2023/08/01 14:13:23;;;;;;;5.68;4.18;;;23.90;99.90;;;;;;6221473;28;83971;-69
2023/08/01 14:16:25;;;;;;;4.32;3.85;;;23.90;99.90;;;;;;6229448;27;82881;-69
2023/08/01 14:19:29;;;;;;;5.68;4.28;;;23.90;99.90;;;;;;6221602;28;84242;-69
2023/08/01 14:22:31;;;;;;;5.93;4.20;;;23.90;99.90;;;;;;6230469;28;84050;-69
2023/08/01 14:25:35;;;;;;;6.97;4.55;;;23.90;99.90;;;;;;6245818;28;83008;-69
2023/08/01 14:28:37;;;;;;;6.88;4.55;;;23.90;99.90;;;;;;6247097;27;82918;-69
2023/08/01 14:31:39;;;;;;;5.20;4.40;;;23.90;99.90;;;;;;6239072;28;83678;-69
2023/08/01 14:34:41;;;;;;;5.00;4.47;;;23.80;99.90;;;;;;6231494;28;82911;-70
2023/08/01 14:37:47;;;;;;;5.70;4.75;;;23.90;99.90;;;;;;6230896;28;84084;-69
2023/08/01 14:40:51;;;;;;;6.30;5.18;;;23.90;99.90;;;;;;6236367;28;84936;-69
2023/08/01 14:43:53;;;;;;;5.78;5.18;;;23.90;99.90;;;;;;6244789;27;83925;-69
2023/08/01 14:46:55;;;;;;;5.20;4.70;;;23.90;99.90;;;;;;6229584;28;84285;-69
2023/08/01 14:49:57;;;;;;;5.45;4.60;;;23.80;99.90;;;;;;6230046;28;84319;-69
2023/08/01 14:52:59;;;;;;;6.90;5.00;;;23.90;99.90;;;;;;6238483;28;83196;-69
2023/08/01 14:56:05;;;;;;;8.23;4.97;;;23.90;99.90;;;;;;6247227;28;83194;-69
2023/08/01 14:59:07;;;;;;;7.68;4.82;;;23.90;99.90;;;;;;6248066;28;84020;-69
2023/08/01 15:02:09;;;;;;;5.57;4.47;;;23.90;99.90;;;;;;6235541;28;83230;-69
2023/08/01 15:05:13;;;;;;;5.38;4.28;;;23.90;99.90;;;;;;6241870;27;84044;-69
2023/08/01 15:08:15;;;;;;;4.60;4.00;;;23.90;99.90;;;;;;6236764;28;83960;-69
2023/08/01 15:11:19;;;;;;;4.70;4.18;;;23.90;99.90;;;;;;6237570;27;84164;-70
2023/08/01 15:14:22;;;;;;;7.15;5.00;;;23.90;99.90;;;;;;6233811;28;84179;-69
2023/08/01 15:17:25;;;;;;;4.60;4.00;;;23.90;99.90;;;;;;6249484;27;84187;-69
2023/08/01 15:20:27;;;;;;;8.23;5.07;;;23.90;99.90;;;;;;6216485;28;84052;-69
2023/08/01 15:23:29;;;;;;;5.25;4.20;;;23.80;99.90;;;;;;6228385;28;85020;-69
2023/08/01 15:26:32;;;;;;;5.95;4.22;;;23.90;99.90;;;;;;6247446;28;84329;-69
2023/08/01 15:29:34;;;;;;;5.35;4.03;;;23.80;99.90;;;;;;6257398;27;84025;-69
2023/08/01 15:32:37;;;;;;;4.97;4.15;;;23.80;99.90;;;;;;6236401;27;82025;-69
2023/08/01 15:35:40;;;;;;;4.93;4.10;;;23.80;99.90;;;;;;6259748;27;82945;-69
2023/08/01 15:38:42;;;;;;;4.72;4.25;;;23.80;99.90;;;;;;6238487;27;83091;-69
2023/08/01 15:41:47;;;;;;;4.68;4.03;;;23.90;99.90;;;;;;6220794;28;85199;-69
2023/08/01 15:44:49;;;;;;;7.03;4.43;;;23.80;99.90;;;;;;6234001;28;82880;-69
2023/08/01 15:47:51;;;;;;;4.32;3.72;;;23.90;99.90;;;;;;6235202;28;84225;-69
2023/08/01 15:50:53;;;;;;;5.13;4.10;;;23.90;99.90;;;;;;6224329;28;83982;-69
2023/08/01 15:53:56;;;;;;;5.40;4.20;;;23.90;99.90;;;;;;6221943;28;84134;-68
2023/08/01 15:57:00;;;;;;;5.78;4.15;;;23.80;99.90;;;;;;6220042;28;83844;-69
2023/08/01 16:00:02;;;;;;;5.78;4.53;;;23.80;99.90;;;;;;6233128;28;83968;-69
2023/08/01 16:03:06;;;;;;;5.32;4.22;;;23.80;99.90;;;;;;6230197;28;83414;-69
2023/08/01 16:06:09;;;;;;;5.03;4.10;;;23.80;99.90;;;;;;6245093;28;82832;-69
2023/08/01 16:09:12;;;;;;;5.05;4.05;;;23.80;99.90;;;;;;6239109;27;83237;-69
2023/08/01 16:12:16;;;;;;;5.50;4.00;;;23.90;99.90;;;;;;6228351;28;83917;-69
2023/08/01 16:15:19;;;;;;;4.97;4.13;;;23.80;99.90;;;;;;6234105;28;84399;-68
2023/08/01 16:18:22;;;;;;;4.88;4.03;;;23.80;99.90;;;;;;6233071;28;83169;-69
2023/08/01 16:21:26;;;;;;;5.38;4.18;;;23.80;99.90;;;;;;6235566;28;82941;-69
2023/08/01 16:24:29;;;;;;;5.00;3.80;;;23.80;99.90;;;;;;6231148;28;82904;-69
2023/08/01 16:27:35;;;;;;;4.78;4.10;;;23.80;99.90;;;;;;6238720;28;85274;-69
2023/08/01 16:30:38;;;;;;;5.20;4.10;;;23.90;99.90;;;;;;6241108;27;82929;-69
2023/08/01 16:33:42;;;;;;;5.07;3.97;;;23.80;99.90;;;;;;6234135;28;82810;-69
2023/08/01 16:36:46;;;;;;;7.28;4.65;;;23.80;99.90;;;;;;6234523;28;82791;-69
2023/08/01 16:39:49;;;;;;;5.97;4.32;;;23.90;99.90;;;;;;6233347;27;83703;-69
2023/08/01 16:42:54;;;;;;;5.40;4.07;;;23.90;99.90;;;;;;6224829;28;84155;-69
2023/08/01 16:46:02;;;;;;;4.28;3.65;;;23.80;99.90;;;;;;6235286;27;83250;-69
2023/08/01 16:49:05;;;;;;;4.68;3.60;;;23.80;99.90;;;;;;6236949;28;83061;-69
2023/08/01 16:52:09;;;;;;;4.43;3.90;;;23.80;99.90;;;;;;6245608;28;83457;-69
2023/08/01 16:55:12;;;;;;;5.00;4.25;;;23.80;99.90;;;;;;6240658;28;83051;-69
2023/08/01 16:58:18;;;;;;;4.68;4.00;;;23.80;99.90;;;;;;6244052;27;82329;-69
2023/08/01 17:01:21;;;;;;;4.85;3.95;;;23.80;99.90;;;;;;6239634;27;82985;-69
2023/08/01 17:04:26;;;;;;;4.38;3.55;;;23.90;99.90;;;;;;6236710;28;82238;-69
2023/08/01 17:07:30;;;;;;;5.43;4.10;;;23.80;99.90;;;;;;6245170;27;83449;-68
2023/08/01 17:10:35;;;;;;;4.90;4.20;;;23.80;99.90;;;;;;6241442;28;83215;-68
2023/08/01 17:13:40;;;;;;;4.80;3.90;;;23.80;99.90;;;;;;6229714;27;83267;-69
2023/08/01 17:16:44;;;;;;;4.82;4.20;;;23.80;99.90;;;;;;6232651;28;82965;-69
2023/08/01 17:19:49;;;;;;;4.10;3.70;;;23.80;99.90;;;;;;6212651;28;83235;-69
2023/08/01 17:22:54;;;;;;;4.15;3.75;;;23.80;99.90;;;;;;6229149;28;82966;-69
2023/08/01 17:25:57;;;;;;;3.90;3.53;;;23.80;99.90;;;;;;6224343;28;84452;-69
2023/08/01 17:29:03;;;;;;;4.00;3.60;;;23.80;99.90;;;;;;6239492;27;82264;-69
2023/08/01 17:32:07;;;;;;;4.05;3.65;;;23.80;99.90;;;;;;6231770;28;83488;-69
2023/08/01 17:35:12;;;;;;;7.50;4.63;;;23.80;99.90;;;;;;6233630;28;83784;-69
2023/08/01 17:38:16;;;;;;;8.43;4.70;;;23.80;99.90;;;;;;6231789;28;83545;-69
2023/08/01 17:41:21;;;;;;;4.10;3.70;;;23.80;99.90;;;;;;6244392;28;82978;-69
2023/08/01 17:44:26;;;;;;;4.10;3.47;;;23.80;99.90;;;;;;6232345;28;86402;-69
2023/08/01 17:47:31;;;;;;;3.88;3.22;;;23.80;99.90;;;;;;6232342;28;82971;-69
2023/08/01 17:50:34;;;;;;;4.00;3.20;;;23.80;99.90;;;;;;6232466;28;82784;-69
2023/08/01 17:53:38;;;;;;;5.10;3.60;;;23.80;99.90;;;;;;6222045;28;83003;-69
2023/08/01 17:56:43;;;;;;;6.05;3.78;;;23.80;99.90;;;;;;6231880;28;83002;-69
2023/08/01 17:59:48;;;;;;;4.03;3.38;;;23.80;99.90;;;;;;6231750;28;83228;-69
2023/08/01 18:02:52;;;;;;;3.80;3.33;;;23.80;99.90;;;;;;6226542;28;83225;-69
2023/08/01 18:06:07;;;;;;;4.20;2.78;;;23.80;99.90;;;;;;6229739;28;82351;-69
2023/08/01 18:09:11;;;;;;;4.03;3.25;;;23.80;99.90;;;;;;6233495;27;83216;-69
2023/08/01 18:12:16;;;;;;;3.45;2.97;;;23.80;99.90;;;;;;6216329;28;83278;-69
2023/08/01 18:15:21;;;;;;;3.45;2.90;;;23.80;99.90;;;;;;6229861;28;83986;-69
2023/08/01 18:18:25;;;;;;;3.50;3.00;;;23.80;99.90;;;;;;6230240;28;82255;-69
2023/08/01 18:21:31;;;;;;;4.20;3.00;;;23.80;99.90;;;;;;6219528;28;83125;-69
2023/08/01 18:24:34;;;;;;;4.05;2.90;;;23.80;99.90;;;;;;6232786;28;83064;-69
2023/08/01 18:27:38;;;;;;;2.97;2.42;;;23.80;99.90;;;;;;6236624;28;85764;-69
2023/08/01 18:30:43;;;;;;;4.10;2.33;;;23.80;99.90;;;;;;6241476;28;84500;-69
2023/08/01 18:33:47;;;;;;;2.80;2.15;;;23.80;99.90;;;;;;6243683;27;82056;-69
2023/08/01 18:36:51;;;;;;;5.55;2.80;;;23.80;99.90;;;;;;6223621;28;82132;-69
2023/08/01 18:39:56;;;;;;;4.70;2.42;;;23.80;99.90;;;;;;6248719;27;82556;-69
2023/08/01 18:43:00;;;;;;;3.13;2.05;;;23.80;99.90;;;;;;6224752;28;82977;-69
2023/08/01 18:46:06;;;;;;;2.78;2.00;;;23.80;99.90;;;;;;6212087;28;84218;-69
2023/08/01 18:49:10;;;;;;;3.35;1.75;;;23.80;99.90;;;;;;6224774;28;83337;-69
2023/08/01 18:52:14;;;;;;;2.90;1.90;;;23.70;99.90;;;;;;6234332;28;83426;-69
2023/08/01 18:55:18;;;;;;;1.92;1.73;;;23.70;99.90;;;;;;6233913;28;83245;-69
2023/08/01 18:58:21;;;;;;;2.95;1.92;;;23.70;99.90;;;;;;6235726;28;85270;-69
2023/08/01 19:01:27;;;;;;;3.28;2.00;;;23.70;99.90;;;;;;6231210;28;82667;-69
2023/08/01 19:04:30;;;;;;;2.55;1.80;;;23.80;99.90;;;;;;6230818;28;82980;-69
2023/08/01 19:07:34;;;;;;;3.58;2.28;;;23.80;99.90;;;;;;6235365;28;82261;-69
2023/08/01 19:10:38;;;;;;;2.95;2.00;;;23.70;99.90;;;;;;6237346;28;83002;-69
2023/08/01 19:13:43;;;;;;;4.18;2.35;;;23.70;99.90;;;;;;6225131;28;82807;-69
2023/08/01 19:16:48;;;;;;;3.80;2.22;;;23.80;99.90;;;;;;6240934;28;83920;-69
2023/08/01 19:19:52;;;;;;;2.80;1.88;;;23.70;99.90;;;;;;6223314;28;83927;-69
2023/08/01 19:22:55;;;;;;;3.47;1.75;;;23.80;99.90;;;;;;6220240;28;82932;-69
2023/08/01 19:26:07;;;;;;;1.88;1.65;;;23.70;99.90;;;;;;6249703;27;83057;-69
2023/08/01 19:29:11;;;;;;;2.55;1.80;;;23.70;99.90;;;;;;6244988;28;83735;-69
2023/08/01 19:32:16;;;;;;;2.35;1.70;;;23.70;99.90;;;;;;6229089;28;82958;-69
2023/08/01 19:35:21;;;;;;;4.22;2.17;;;23.70;99.90;;;;;;6229878;28;88117;-69
2023/08/01 19:38:25;;;;;;;3.60;2.03;;;23.70;99.90;;;;;;6231682;28;87321;-69
2023/08/01 19:41:45;;;;;;;2.97;1.83;;;23.80;99.90;;;;;;6246574;27;87632;-69
2023/08/01 19:44:49;;;;;;;3.33;1.92;;;23.70;99.90;;;;;;6221604;28;88035;-69
2023/08/01 19:47:55;;;;;;;3.58;1.40;;;23.70;99.90;;;;;;6220847;28;88962;-69
2023/08/01 19:51:00;;;;;;;2.72;1.90;;;23.80;99.90;;;;;;6244868;28;88016;-69